Time;durP1;ratioP1;P1;durP2;ratioP2;P2;SDS_P1;SDS_P2;PMS_P1;PMS_P2;Temp;Humidity;BMP_temperature;BMP_pressure;BME280_temperature;BME280_humidity;BME280_pressure;Samples;Min_cycle;Max_cycle;Signal;HPM_P1;HPM_P2
2021/07/24 00:00:23;;;;;;;;;;;;;;;21.52;60.85;100749.03;5158620;27;778;-46
2021/07/24 00:02:49;;;;;;;;;;;;;;;21.81;60.03;100747.88;5158371;27;846;-60
2021/07/24 00:05:14;;;;;;;;;;;;;;;22.05;59.37;100750.38;5158209;27;1176;-52
2021/07/24 00:07:40;;;;;;;;;;;;;;;21.60;60.58;100753.03;5158297;27;815;-61
2021/07/24 00:10:05;;;;;;;;;;;;;;;21.23;62.04;100748.47;5158681;27;823;-43
2021/07/24 00:12:31;;;;;;;;;;;;;;;21.25;59.72;100746.22;5157936;27;1059;-61
2021/07/24 00:14:57;;;;;;;;;;;;;;;20.91;58.47;100733.56;5158406;27;1979;-59
2021/07/24 00:17:23;;;;;;;;;;;;;;;21.17;61.16;100742.22;5158356;27;766;-61
2021/07/24 00:19:48;;;;;;;;;;;;;;;21.36;62.64;100742.13;5158022;27;810;-61
2021/07/24 00:22:14;;;;;;;;;;;;;;;21.72;61.15;100738.66;5157997;27;830;-61
2021/07/24 00:24:39;;;;;;;;;;;;;;;21.87;60.45;100731.97;5158199;27;873;-61
2021/07/24 00:27:08;;;;;;;;;;;;;;;21.81;60.63;100736.81;5158004;27;957;-45
2021/07/24 00:29:34;;;;;;;;;;;;;;;21.39;61.69;100743.47;5158748;27;788;-62
2021/07/24 00:32:00;;;;;;;;;;;;;;;21.03;62.77;100739.44;5157636;27;770;-44
2021/07/24 00:34:26;;;;;;;;;;;;;;;20.92;59.35;100733.28;5139759;27;1251;-56
2021/07/24 00:36:51;;;;;;;;;;;;;;;21.23;61.40;100740.19;5139539;27;1913;-61
2021/07/24 00:39:16;;;;;;;;;;;;;;;21.48;61.80;100739.66;5139502;27;799;-60
2021/07/24 00:41:43;;;;;;;;;;;;;;;21.82;60.77;100737.63;5160931;27;968;-61
2021/07/24 00:44:08;;;;;;;;;;;;;;;21.96;60.01;100732.06;5161825;27;736;-45
2021/07/24 00:46:37;;;;;;;;;;;;;;;21.53;61.10;100739.59;5143792;27;1287;-60
2021/07/24 00:49:02;;;;;;;;;;;;;;;21.20;62.25;100727.78;5143897;27;1141;-60
2021/07/24 00:51:58;;;;;;;;;;;;;;;20.63;60.03;100733.47;5152688;27;1120;-60
2021/07/24 00:54:23;;;;;;;;;;;;;;;21.18;60.84;100727.25;5143235;27;763;-60
2021/07/24 00:56:49;;;;;;;;;;;;;;;21.41;62.34;100732.91;5161971;27;1972;-53
2021/07/24 00:59:14;;;;;;;;;;;;;;;21.57;59.72;100733.44;5161692;27;763;-55
2021/07/24 01:01:43;;;;;;;;;;;;;;;21.69;60.50;100725.44;5143310;27;1158;-61
2021/07/24 01:04:09;;;;;;;;;;;;;;;21.84;60.13;100719.56;5143869;27;1046;-61
2021/07/24 01:06:37;;;;;;;;;;;;;;;21.30;61.67;100722.03;5143614;27;1294;-51
2021/07/24 01:09:03;;;;;;;;;;;;;;;21.24;62.01;100719.69;5142916;27;878;-61
2021/07/24 01:11:28;;;;;;;;;;;;;;;21.00;59.63;100720.72;5142802;27;1156;-60
2021/07/24 01:13:54;;;;;;;;;;;;;;;20.95;59.96;100723.56;5143688;27;823;-49
2021/07/24 01:16:20;;;;;;;;;;;;;;;21.41;61.35;100710.78;5161922;27;1917;-60
2021/07/24 01:18:46;;;;;;;;;;;;;;;21.56;61.66;100715.19;5161977;27;818;-59
2021/07/24 01:21:29;;;;;;;;;;;;;;;21.83;60.46;100701.31;5142768;27;1609;-60
2021/07/24 01:23:57;;;;;;;;;;;;;;;21.96;59.91;100709.91;5142487;27;1411;-60
2021/07/24 01:26:26;;;;;;;;;;;;;;;21.83;60.17;100706.84;5161176;27;1024;-60
2021/07/24 01:28:53;;;;;;;;;;;;;;;21.27;62.11;100706.06;5161621;27;796;-60
2021/07/24 01:31:19;;;;;;;;;;;;;;;21.15;61.45;100705.75;5142774;27;1303;-60
2021/07/24 01:33:45;;;;;;;;;;;;;;;21.01;59.05;100701.03;5161137;27;830;-46
2021/07/24 01:36:10;;;;;;;;;;;;;;;21.16;61.86;100699.09;5160773;27;1970;-61
2021/07/24 01:38:37;;;;;;;;;;;;;;;21.56;61.54;100701.38;5142584;27;1168;-60
2021/07/24 01:41:08;;;;;;;;;;;;;;;21.72;61.00;100699.91;5160719;27;961;-50
2021/07/24 01:43:36;;;;;;;;;;;;;;;21.90;60.23;100702.84;5142623;27;1279;-57
2021/07/24 01:46:02;;;;;;;;;;;;;;;21.42;61.52;100695.81;5160826;27;807;-61
2021/07/24 01:48:45;;;;;;;;;;;;;;;21.20;62.15;100692.66;5142828;27;1222;-57
2021/07/24 01:53:58;;;;;;;;;;;;;;;20.91;59.98;100703.97;5160712;27;797;-47
2021/07/24 01:56:24;;;;;;;;;;;;;;;21.29;61.90;100705.75;5124471;27;1917;-56
2021/07/24 01:58:50;;;;;;;;;;;;;;;21.52;61.98;100696.44;5142344;27;1088;-48
2021/07/24 02:01:21;;;;;;;;;;;;;;;21.69;59.83;100706.06;5142267;27;1302;-58
2021/07/24 02:03:51;;;;;;;;;;;;;;;21.71;60.22;100692.72;5160363;27;723;-58
2021/07/24 02:06:36;;;;;;;;;;;;;;;21.90;59.90;100700.91;5160694;27;608;-53
2021/07/24 02:09:21;;;;;;;;;;;;;;;21.64;60.46;100703.41;5144494;27;1306;-57
2021/07/24 02:11:54;;;;;;;;;;;;;;;21.25;61.87;100696.44;5141666;27;1251;-50
2021/07/24 02:14:23;;;;;;;;;;;;;;;21.08;59.60;100697.84;5141878;27;1141;-59
2021/07/24 02:16:58;;;;;;;;;;;;;;;21.11;60.47;100697.28;5142074;27;1913;-57
2021/07/24 02:19:33;;;;;;;;;;;;;;;21.23;62.38;100693.97;5143428;27;837;-57
2021/07/24 02:21:59;;;;;;;;;;;;;;;21.54;61.01;100682.31;5160298;27;794;-57
2021/07/24 02:24:24;;;;;;;;;;;;;;;21.77;60.09;100685.97;5141667;27;771;-50
2021/07/24 02:26:50;;;;;;;;;;;;;;;21.73;59.36;100684.94;5141462;27;1387;-57
2021/07/24 02:29:16;;;;;;;;;;;;;;;21.53;57.73;100689.81;5159878;27;798;-56
2021/07/24 02:31:43;;;;;;;;;;;;;;;21.26;56.88;100687.03;5141718;27;1252;-57
2021/07/24 02:34:14;;;;;;;;;;;;;;;21.14;55.13;100691.13;5141606;27;1211;-57
2021/07/24 02:36:39;;;;;;;;;;;;;;;20.85;54.75;100688.63;5160065;27;1898;-57
2021/07/24 02:39:05;;;;;;;;;;;;;;;20.83;53.56;100694.47;5141569;27;1227;-44
2021/07/24 02:41:31;;;;;;;;;;;;;;;20.82;52.73;100701.13;5140907;27;1311;-57
2021/07/24 02:43:57;;;;;;;;;;;;;;;20.54;52.72;100700.19;5160191;27;823;-57
2021/07/24 02:46:22;;;;;;;;;;;;;;;20.62;53.41;100705.03;5159553;27;818;-57
2021/07/24 02:48:51;;;;;;;;;;;;;;;20.72;55.58;100701.31;5159953;27;758;-57
2021/07/24 02:51:24;;;;;;;;;;;;;;;21.15;56.12;100701.06;5159658;27;1005;-55
2021/07/24 02:53:51;;;;;;;;;;;;;;;21.43;56.62;100700.22;5159316;27;754;-57
2021/07/24 02:56:17;;;;;;;;;;;;;;;21.65;57.01;100707.81;5159637;27;1917;-57
2021/07/24 02:58:43;;;;;;;;;;;;;;;21.45;58.10;100704.31;5159935;27;804;-57
2021/07/24 03:01:09;;;;;;;;;;;;;;;20.94;60.56;100699.78;5140935;27;1227;-57
2021/07/24 03:03:35;;;;;;;;;;;;;;;20.94;59.79;100702.56;5159510;27;823;-44
2021/07/24 03:06:01;;;;;;;;;;;;;;;20.60;59.23;100703.69;5158881;27;1049;-54
2021/07/24 03:08:26;;;;;;;;;;;;;;;21.10;61.07;100701.16;5159383;27;755;-57
2021/07/24 03:10:51;;;;;;;;;;;;;;;21.43;60.31;100703.78;5159103;27;1036;-58
2021/07/24 03:13:17;;;;;;;;;;;;;;;21.61;59.41;100701.25;5158971;27;780;-59
2021/07/24 03:15:42;;;;;;;;;;;;;;;21.91;58.83;100701.69;5158973;27;1966;-58
2021/07/24 03:18:08;;;;;;;;;;;;;;;21.47;59.88;100707.59;5159527;27;1333;-58
2021/07/24 03:20:33;;;;;;;;;;;;;;;21.10;61.58;100703.91;5158743;27;1421;-46
2021/07/24 03:22:59;;;;;;;;;;;;;;;21.04;60.02;100713.41;5159061;27;815;-57
2021/07/24 03:25:26;;;;;;;;;;;;;;;20.81;60.39;100705.00;5158946;27;727;-46
2021/07/24 03:27:52;;;;;;;;;;;;;;;20.99;62.25;100708.00;5159015;27;956;-58
2021/07/24 03:30:17;;;;;;;;;;;;;;;21.40;61.08;100711.91;5159033;27;747;-58
2021/07/24 03:32:43;;;;;;;;;;;;;;;21.73;59.89;100706.25;5158806;27;783;-56
2021/07/24 03:35:08;;;;;;;;;;;;;;;21.68;59.77;100710.75;5158537;27;1905;-45
2021/07/24 03:37:34;;;;;;;;;;;;;;;21.16;60.77;100718.47;5158773;27;806;-45
2021/07/24 03:39:59;;;;;;;;;;;;;;;20.81;60.45;100715.25;5158797;27;826;-57
2021/07/24 03:42:25;;;;;;;;;;;;;;;20.55;58.20;100721.16;5158723;27;1008;-48
2021/07/24 03:44:50;;;;;;;;;;;;;;;20.54;58.23;100719.53;5158444;27;770;-50
2021/07/24 03:47:18;;;;;;;;;;;;;;;20.68;56.28;100712.13;5158589;27;798;-49
2021/07/24 03:49:44;;;;;;;;;;;;;;;20.79;54.81;100712.78;5159193;27;778;-57
2021/07/24 03:52:09;;;;;;;;;;;;;;;20.52;55.10;100725.38;5158715;27;878;-46
2021/07/24 03:54:35;;;;;;;;;;;;;;;20.49;54.46;100709.38;5158501;27;1446;-48
2021/07/24 03:57:00;;;;;;;;;;;;;;;20.40;54.40;100721.41;5147462;27;1909;-57
2021/07/24 03:59:26;;;;;;;;;;;;;;;20.48;53.84;100716.03;5158303;27;809;-47
2021/07/24 04:01:54;;;;;;;;;;;;;;;20.40;53.53;100713.97;5158493;27;810;-59
2021/07/24 04:04:19;;;;;;;;;;;;;;;20.49;53.13;100725.94;5158148;27;1163;-58
2021/07/24 04:06:44;;;;;;;;;;;;;;;20.42;53.11;100720.00;5139850;27;838;-51
2021/07/24 04:09:10;;;;;;;;;;;;;;;20.35;53.05;100725.09;5158321;27;854;-57
2021/07/24 04:11:36;;;;;;;;;;;;;;;20.44;53.26;100734.34;5157684;27;1000;-51
2021/07/24 04:14:02;;;;;;;;;;;;;;;20.42;54.38;100725.50;5139970;27;870;-54
2021/07/24 04:16:27;;;;;;;;;;;;;;;20.71;55.11;100716.25;5157938;27;1909;-54
2021/07/24 04:18:53;;;;;;;;;;;;;;;20.69;56.48;100721.22;5158106;27;774;-47
2021/07/24 04:21:18;;;;;;;;;;;;;;;21.01;56.37;100719.56;5139797;27;815;-51
2021/07/24 04:23:44;;;;;;;;;;;;;;;21.07;56.99;100723.88;5157982;27;759;-46
2021/07/24 04:26:10;;;;;;;;;;;;;;;21.18;57.27;100725.31;5157610;27;949;-50
2021/07/24 04:28:35;;;;;;;;;;;;;;;21.40;56.83;100723.78;5158235;27;818;-43
2021/07/24 04:31:00;;;;;;;;;;;;;;;21.38;57.25;100726.06;5157949;27;739;-49
2021/07/24 04:33:26;;;;;;;;;;;;;;;21.27;57.88;100725.44;5158040;27;712;-51
2021/07/24 04:35:51;;;;;;;;;;;;;;;21.00;59.10;100729.00;5157964;27;1969;-54
2021/07/24 04:38:17;;;;;;;;;;;;;;;20.81;58.80;100731.81;5157760;27;950;-48
2021/07/24 04:40:43;;;;;;;;;;;;;;;20.83;60.14;100730.41;5157936;27;798;-54
2021/07/24 04:43:09;;;;;;;;;;;;;;;21.09;59.43;100735.44;5139117;27;1005;-50
2021/07/24 04:45:35;;;;;;;;;;;;;;;21.40;58.54;100736.81;5139458;27;806;-54
2021/07/24 04:48:00;;;;;;;;;;;;;;;21.37;58.67;100741.81;5157813;27;798;-53
2021/07/24 04:50:26;;;;;;;;;;;;;;;21.28;59.16;100738.13;5157623;27;810;-43
2021/07/24 04:52:51;;;;;;;;;;;;;;;20.97;60.32;100732.34;5139469;27;767;-53
2021/07/24 04:55:17;;;;;;;;;;;;;;;20.80;60.19;100736.53;5157731;27;1964;-52
2021/07/24 04:57:42;;;;;;;;;;;;;;;20.44;59.60;100739.03;5157423;27;937;-56
2021/07/24 05:00:08;;;;;;;;;;;;;;;20.85;61.71;100733.66;5157710;27;775;-55
2021/07/24 05:02:33;;;;;;;;;;;;;;;21.15;60.70;100737.00;5157762;27;802;-56
2021/07/24 05:04:59;;;;;;;;;;;;;;;21.33;59.87;100731.69;5138867;27;1152;-58
2021/07/24 05:07:24;;;;;;;;;;;;;;;21.52;59.42;100739.91;5157820;27;795;-54
2021/07/24 05:09:50;;;;;;;;;;;;;;;21.20;60.55;100738.84;5157610;27;763;-55
2021/07/24 05:12:15;;;;;;;;;;;;;;;21.08;61.09;100739.31;5157598;27;973;-54
2021/07/24 05:14:41;;;;;;;;;;;;;;;20.77;59.46;100745.41;5157503;27;1968;-56
2021/07/24 05:17:10;;;;;;;;;;;;;;;20.65;60.98;100743.09;5157292;27;811;-55
2021/07/24 05:19:35;;;;;;;;;;;;;;;;;;5157806;27;511;-46
2021/07/24 05:22:00;;;;;;;;;;;;;;;21.71;60.78;100731.47;5157497;27;862;-52
2021/07/24 05:24:26;;;;;;;;;;;;;;;21.77;61.26;100737.72;5157599;27;811;-55
2021/07/24 05:26:51;;;;;;;;;;;;;;;21.58;62.48;100729.56;5157392;27;961;-55
2021/07/24 05:29:18;;;;;;;;;;;;;;;21.53;61.78;100730.47;5161135;27;834;-55
2021/07/24 05:31:43;;;;;;;;;;;;;;;20.91;58.86;100728.06;5161232;27;810;-55
2021/07/24 05:34:09;;;;;;;;;;;;;;;21.02;60.70;100732.25;5161711;27;914;-56
2021/07/24 05:36:35;;;;;;;;;;;;;;;21.00;61.52;100731.75;5161077;27;1913;-51
2021/07/24 05:39:00;;;;;;;;;;;;;;;21.14;59.30;100732.59;5161260;27;751;-55
2021/07/24 05:41:26;;;;;;;;;;;;;;;21.17;58.41;100728.41;5160561;27;985;-52
2021/07/24 05:43:51;;;;;;;;;;;;;;;21.24;57.26;100726.03;5161163;27;775;-42
2021/07/24 05:46:17;;;;;;;;;;;;;;;21.26;56.47;100731.28;5160946;27;882;-56
2021/07/24 05:48:42;;;;;;;;;;;;;;;20.97;57.00;100726.81;5161214;27;819;-56
2021/07/24 05:51:08;;;;;;;;;;;;;;;21.16;56.15;100730.31;5160762;27;835;-43
2021/07/24 05:53:33;;;;;;;;;;;;;;;21.09;55.84;100731.88;5160612;27;758;-43
2021/07/24 05:56:01;;;;;;;;;;;;;;;21.04;55.88;100735.53;5160592;27;1909;-46
2021/07/24 05:58:28;;;;;;;;;;;;;;;21.15;55.24;100737.00;5142133;27;1220;-56
2021/07/24 06:00:54;;;;;;;;;;;;;;;21.11;55.23;100735.97;5161054;27;763;-54
2021/07/24 06:03:19;;;;;;;;;;;;;;;21.14;55.06;100729.81;5160760;27;932;-56
2021/07/24 06:05:44;;;;;;;;;;;;;;;21.06;55.16;100741.59;5160378;27;1030;-45
2021/07/24 06:08:10;;;;;;;;;;;;;;;21.01;55.18;100742.50;5160208;27;822;-42
2021/07/24 06:10:36;;;;;;;;;;;;;;;21.02;55.14;100735.03;5160565;27;877;-57
2021/07/24 06:13:01;;;;;;;;;;;;;;;20.97;55.11;100735.13;5160092;27;1092;-56
2021/07/24 06:15:27;;;;;;;;;;;;;;;21.12;54.83;100742.31;5160512;27;1913;-56
2021/07/24 06:17:53;;;;;;;;;;;;;;;21.03;54.93;100737.47;5160334;27;803;-56
2021/07/24 06:20:18;;;;;;;;;;;;;;;21.11;54.67;100741.50;5160080;27;806;-56
2021/07/24 06:22:44;;;;;;;;;;;;;;;20.91;55.11;100736.34;5160469;27;802;-42
2021/07/24 06:25:11;;;;;;;;;;;;;;;20.99;54.73;100735.66;5160277;27;830;-53
2021/07/24 06:27:37;;;;;;;;;;;;;;;20.95;54.89;100737.38;5160097;27;961;-55
2021/07/24 06:30:02;;;;;;;;;;;;;;;21.07;54.45;100736.88;5160358;27;823;-56
2021/07/24 06:32:28;;;;;;;;;;;;;;;21.15;54.46;100733.41;5160208;27;735;-56
2021/07/24 06:34:53;;;;;;;;;;;;;;;21.23;54.01;100738.22;5159896;27;1980;-56
2021/07/24 06:37:19;;;;;;;;;;;;;;;21.10;54.25;100739.84;5160188;27;824;-43
2021/07/24 06:39:44;;;;;;;;;;;;;;;20.99;54.70;100743.94;5159446;27;922;-43
2021/07/24 06:42:10;;;;;;;;;;;;;;;21.09;54.29;100742.94;5160286;27;1013;-55
2021/07/24 06:44:35;;;;;;;;;;;;;;;21.32;53.54;100741.09;5159924;27;787;-42
2021/07/24 06:47:01;;;;;;;;;;;;;;;21.17;53.86;100745.00;5159395;27;767;-55
2021/07/24 06:49:26;;;;;;;;;;;;;;;21.13;54.01;100749.50;5159862;27;743;-55
2021/07/24 06:51:52;;;;;;;;;;;;;;;21.09;54.03;100743.75;5159702;27;783;-56
2021/07/24 06:54:17;;;;;;;;;;;;;;;21.12;54.09;100747.84;5159783;27;751;-56
2021/07/24 06:56:43;;;;;;;;;;;;;;;21.17;53.90;100748.56;5159347;27;1909;-43
2021/07/24 06:59:08;;;;;;;;;;;;;;;21.18;53.94;100752.13;5159201;27;831;-56
2021/07/24 07:01:34;;;;;;;;;;;;;;;21.08;53.93;100746.81;5160112;27;739;-56
2021/07/24 07:03:59;;;;;;;;;;;;;;;21.14;53.95;100746.41;5159176;27;1163;-43
2021/07/24 07:06:25;;;;;;;;;;;;;;;21.24;53.63;100747.34;5141294;27;1259;-43
2021/07/24 07:08:50;;;;;;;;;;;;;;;20.93;54.34;100739.59;5159280;27;814;-56
2021/07/24 07:11:16;;;;;;;;;;;;;;;20.77;55.02;100753.69;5158842;27;937;-43
2021/07/24 07:13:41;;;;;;;;;;;;;;;20.74;54.95;100753.50;5159410;27;806;-56
2021/07/24 07:16:07;;;;;;;;;;;;;;;20.22;56.35;100742.44;5159113;27;1906;-55
2021/07/24 07:18:33;;;;;;;;;;;;;;;20.58;55.27;100745.44;5159310;27;756;-56
2021/07/24 07:20:58;;;;;;;;;;;;;;;20.88;55.00;100742.47;5159124;27;763;-56
2021/07/24 07:23:24;;;;;;;;;;;;;;;20.89;55.72;100744.94;5159307;27;775;-56
2021/07/24 07:25:49;;;;;;;;;;;;;;;21.14;55.47;100746.41;5158916;27;809;-43
2021/07/24 07:28:15;;;;;;;;;;;;;;;21.29;55.40;100742.53;5159345;27;786;-43
2021/07/24 07:30:40;;;;;;;;;;;;;;;21.10;56.38;100739.06;5158982;27;897;-55
2021/07/24 07:33:06;;;;;;;;;;;;;;;20.94;57.36;100735.72;5158868;27;750;-55
2021/07/24 07:35:31;;;;;;;;;;;;;;;20.80;56.89;100739.31;5159140;27;1966;-56
2021/07/24 07:37:56;;;;;;;;;;;;;;;20.64;58.06;100746.16;5158602;27;802;-56
2021/07/24 07:40:25;;;;;;;;;;;;;;;20.77;58.62;100742.66;5140018;27;1534;-42
2021/07/24 07:42:50;;;;;;;;;;;;;;;21.04;57.74;100746.59;5158560;27;1020;-42
2021/07/24 07:45:16;;;;;;;;;;;;;;;21.31;57.08;100753.31;5140762;27;720;-44
2021/07/24 07:47:42;;;;;;;;;;;;;;;21.35;57.05;100754.34;5158665;27;754;-56
2021/07/24 07:50:08;;;;;;;;;;;;;;;21.12;57.77;100748.66;5157514;27;819;-52
2021/07/24 07:52:33;;;;;;;;;;;;;;;21.02;58.26;100748.84;5158933;27;881;-47
2021/07/24 07:54:59;;;;;;;;;;;;;;;20.57;57.59;100749.31;5158512;27;1902;-53
2021/07/24 07:57:25;;;;;;;;;;;;;;;20.79;58.91;100748.72;5158380;27;949;-42
2021/07/24 07:59:51;;;;;;;;;;;;;;;21.12;58.46;100754.19;5158038;27;854;-42
2021/07/24 08:02:16;;;;;;;;;;;;;;;21.28;57.94;100748.34;5158323;27;846;-51
2021/07/24 08:04:41;;;;;;;;;;;;;;;21.34;57.83;100745.19;5158545;27;1114;-55
2021/07/24 08:07:07;;;;;;;;;;;;;;;21.11;58.73;100752.56;5158432;27;767;-56
2021/07/24 08:09:32;;;;;;;;;;;;;;;21.09;58.57;100748.47;5158197;27;759;-56
2021/07/24 08:11:58;;;;;;;;;;;;;;;20.74;57.85;100754.31;5158239;27;969;-44
2021/07/24 08:14:23;;;;;;;;;;;;;;;20.69;59.66;100751.63;5158417;27;747;-54
2021/07/24 08:16:48;;;;;;;;;;;;;;;21.20;58.45;100747.94;5139413;27;1909;-54
2021/07/24 08:19:14;;;;;;;;;;;;;;;21.34;57.88;100745.19;5158481;27;910;-43
2021/07/24 08:21:39;;;;;;;;;;;;;;;21.44;57.45;100744.16;5157845;27;771;-55
2021/07/24 08:24:05;;;;;;;;;;;;;;;21.48;57.46;100744.38;5158301;27;743;-44
2021/07/24 08:26:30;;;;;;;;;;;;;;;21.09;58.79;100742.94;5157869;27;957;-56
2021/07/24 08:28:56;;;;;;;;;;;;;;;21.06;58.49;100751.84;5157409;27;790;-49
2021/07/24 08:31:21;;;;;;;;;;;;;;;20.48;57.55;100751.94;5158095;27;807;-44
2021/07/24 08:33:47;;;;;;;;;;;;;;;20.86;59.68;100759.38;5158314;27;727;-54
2021/07/24 08:36:12;;;;;;;;;;;;;;;21.25;59.37;100752.59;5158310;27;1960;-57
2021/07/24 08:38:37;;;;;;;;;;;;;;;21.66;59.30;100760.09;5158112;27;827;-56
2021/07/24 08:41:03;;;;;;;;;;;;;;;21.42;61.11;100763.03;5157173;27;929;-54
2021/07/24 08:43:28;;;;;;;;;;;;;;;21.35;62.24;100754.34;5158096;27;815;-56
2021/07/24 08:45:55;;;;;;;;;;;;;;;21.35;59.47;100746.84;5139112;27;851;-49
2021/07/24 08:48:20;;;;;;;;;;;;;;;20.88;57.88;100748.81;5157905;27;743;-45
2021/07/24 08:50:46;;;;;;;;;;;;;;;20.99;60.33;100752.22;5157834;27;796;-53
2021/07/24 08:53:12;;;;;;;;;;;;;;;21.50;62.04;100751.25;5122677;27;1248;-55
2021/07/24 08:55:39;;;;;;;;;;;;;;;21.84;63.02;100757.50;5157595;27;1901;-54
2021/07/24 08:58:04;;;;;;;;;;;;;;;22.13;62.45;100746.06;5157956;27;1013;-45
2021/07/24 09:00:30;;;;;;;;;;;;;;;21.69;63.62;100750.34;5139323;27;814;-42
2021/07/24 09:02:59;;;;;;;;;;;;;;;21.73;62.72;100750.53;5161525;27;739;-42
2021/07/24 09:05:24;;;;;;;;;;;;;;;21.03;59.08;100745.78;5161782;27;1180;-49
2021/07/24 09:07:50;;;;;;;;;;;;;;;20.83;58.22;100755.28;5143199;27;755;-56
2021/07/24 09:10:16;;;;;;;;;;;;;;;20.69;56.47;100751.63;5161777;27;835;-45
2021/07/24 09:12:42;;;;;;;;;;;;;;;20.63;53.68;100747.28;5161434;27;965;-44
2021/07/24 09:15:08;;;;;;;;;;;;;;;20.44;52.81;100747.31;5161556;27;1909;-48
2021/07/24 09:17:34;;;;;;;;;;;;;;;20.57;52.55;100740.22;5161842;27;789;-44
2021/07/24 09:19:59;;;;;;;;;;;;;;;20.43;52.39;100738.22;5161400;27;861;-53
2021/07/24 09:22:31;;;;;;;;;;;;;;;20.44;52.48;100731.56;5161982;27;807;-46
2021/07/24 09:25:06;;;;;;;;;;;;;;;20.33;52.55;100732.84;5161652;27;788;-55
2021/07/24 09:27:32;;;;;;;;;;;;;;;20.56;51.92;100731.09;5161212;27;1023;-55
2021/07/24 09:29:57;;;;;;;;;;;;;;;20.60;53.05;100731.31;5161419;27;746;-55
2021/07/24 09:32:23;;;;;;;;;;;;;;;20.91;53.78;100734.38;5160792;27;838;-45
2021/07/24 09:34:48;;;;;;;;;;;;;;;21.08;55.06;100725.50;5161339;27;819;-52
2021/07/24 09:37:27;;;;;;;;;;;;;;;21.14;55.89;100729.81;5161291;27;1913;-43
2021/07/24 09:40:18;;;;;;;;;;;;;;;21.23;56.95;100740.19;5161262;27;727;-43
2021/07/24 09:42:43;;;;;;;;;;;;;;;21.43;57.13;100742.53;5160652;27;2057;-57
2021/07/24 09:45:09;;;;;;;;;;;;;;;21.27;58.14;100739.25;5142320;27;831;-56
2021/07/24 09:47:34;;;;;;;;;;;;;;;21.11;59.21;100738.75;5160920;27;771;-50
2021/07/24 09:50:13;;;;;;;;;;;;;;;20.95;59.04;100737.38;5161272;27;762;-56
2021/07/24 09:52:53;;;;;;;;;;;;;;;20.48;59.88;100738.13;5161076;27;767;-46
2021/07/24 09:55:19;;;;;;;;;;;;;;;;;;5160937;27;1906;-55
2021/07/24 09:57:44;;;;;;;;;;;;;;;21.56;58.95;100734.56;5160375;27;978;-55
2021/07/24 10:00:25;;;;;;;;;;;;;;;21.64;58.81;100734.69;5160538;27;854;-55
2021/07/24 10:03:01;;;;;;;;;;;;;;;21.83;58.24;100740.06;5160707;27;802;-55
2021/07/24 10:05:34;;;;;;;;;;;;;;;21.50;59.43;100742.97;5160647;27;1160;-53
2021/07/24 10:08:01;;;;;;;;;;;;;;;21.17;60.68;100734.75;5160508;27;759;-47
2021/07/24 10:10:27;;;;;;;;;;;;;;;21.07;59.71;100737.72;5160926;27;759;-54
2021/07/24 10:12:52;;;;;;;;;;;;;;;20.66;58.57;100728.19;5140571;27;973;-43
2021/07/24 10:15:18;;;;;;;;;;;;;;;21.33;60.53;100726.16;5160214;27;1972;-54
2021/07/24 10:17:43;;;;;;;;;;;;;;;21.58;59.87;100733.13;5142117;27;1133;-58
2021/07/24 10:20:09;;;;;;;;;;;;;;;21.73;59.25;100734.75;5141369;27;898;-54
2021/07/24 10:22:37;;;;;;;;;;;;;;;21.31;60.45;100726.44;5141199;27;924;-58
2021/07/24 10:25:03;;;;;;;;;;;;;;;21.31;60.64;100722.88;5160433;27;775;-55
2021/07/24 10:27:30;;;;;;;;;;;;;;;21.04;60.33;100724.47;5140847;27;962;-56
2021/07/24 10:29:57;;;;;;;;;;;;;;;20.80;59.16;100722.72;5141639;27;728;-53
2021/07/24 10:32:26;;;;;;;;;;;;;;;21.05;60.93;100720.59;5160131;27;759;-56
2021/07/24 10:34:52;;;;;;;;;;;;;;;21.44;59.62;100724.81;5160134;27;826;-42
2021/07/24 10:37:33;;;;;;;;;;;;;;;21.55;60.30;100725.47;5159298;27;866;-56
2021/07/24 10:40:17;;;;;;;;;;;;;;;21.81;59.59;100728.50;5160042;27;818;-57
2021/07/24 10:42:44;;;;;;;;;;;;;;;21.37;61.35;100724.41;5159563;27;945;-42
2021/07/24 10:45:28;;;;;;;;;;;;;;;21.40;60.90;100726.53;5159928;27;882;-58
2021/07/24 10:48:12;;;;;;;;;;;;;;;20.83;59.57;100727.63;5159903;27;779;-57
2021/07/24 10:50:50;;;;;;;;;;;;;;;20.79;59.03;100729.38;5159488;27;779;-57
2021/07/24 10:53:15;;;;;;;;;;;;;;;21.43;61.54;100725.94;5159645;27;823;-42
2021/07/24 10:55:41;;;;;;;;;;;;;;;21.77;61.80;100724.72;5159628;27;1905;-55
2021/07/24 10:58:06;;;;;;;;;;;;;;;22.10;61.10;100727.28;5140632;27;965;-51
2021/07/24 11:00:32;;;;;;;;;;;;;;;21.64;62.20;100723.63;5140792;27;808;-42
2021/07/24 11:02:58;;;;;;;;;;;;;;;21.40;63.02;100723.78;5140002;27;904;-43
2021/07/24 11:05:24;;;;;;;;;;;;;;;21.23;61.48;100705.03;5159279;27;1018;-42
2021/07/24 11:07:49;;;;;;;;;;;;;;;20.99;58.43;100711.56;5159859;27;830;-56
2021/07/24 11:10:15;;;;;;;;;;;;;;;21.25;60.47;100718.56;5159217;27;742;-42
2021/07/24 11:12:41;;;;;;;;;;;;;;;21.48;61.08;100711.19;5159012;27;1001;-57
2021/07/24 11:15:26;;;;;;;;;;;;;;;21.56;60.18;100712.44;5159306;27;1925;-47
2021/07/24 11:18:10;;;;;;;;;;;;;;;21.53;58.88;100728.53;5144962;27;1634;-57
2021/07/24 11:20:45;;;;;;;;;;;;;;;21.50;58.15;100709.75;5159232;27;774;-44
2021/07/24 11:23:11;;;;;;;;;;;;;;;21.55;57.31;100717.16;5158945;27;834;-55
2021/07/24 11:25:37;;;;;;;;;;;;;;;21.22;57.92;100719.19;5158269;27;799;-49
2021/07/24 11:28:02;;;;;;;;;;;;;;;21.06;58.24;100711.19;5158943;27;1004;-56
2021/07/24 11:30:28;;;;;;;;;;;;;;;20.84;57.81;100714.63;5158682;27;779;-56
2021/07/24 11:32:53;;;;;;;;;;;;;;;20.51;59.21;100717.38;5158947;27;794;-43
2021/07/24 11:35:19;;;;;;;;;;;;;;;21.14;57.78;100729.81;5158892;27;1921;-58
2021/07/24 11:37:44;;;;;;;;;;;;;;;21.19;57.32;100726.13;5140008;27;803;-55
2021/07/24 11:40:13;;;;;;;;;;;;;;;21.26;57.00;100720.22;5158836;27;763;-54
2021/07/24 11:42:39;;;;;;;;;;;;;;;21.51;56.42;100716.91;5139758;27;982;-56
2021/07/24 11:45:04;;;;;;;;;;;;;;;21.35;56.69;100724.72;5158545;27;758;-57
2021/07/24 11:47:30;;;;;;;;;;;;;;;21.44;56.28;100726.75;5158853;27;787;-56
2021/07/24 11:50:13;;;;;;;;;;;;;;;21.20;56.96;100725.81;5158931;27;838;-42
2021/07/24 11:52:39;;;;;;;;;;;;;;;20.91;57.92;100726.09;5158480;27;786;-54
2021/07/24 11:55:04;;;;;;;;;;;;;;;20.89;57.49;100722.84;5158082;27;1906;-57
2021/07/24 11:57:30;;;;;;;;;;;;;;;20.55;57.95;100739.69;5158665;27;941;-57
2021/07/24 11:59:55;;;;;;;;;;;;;;;20.95;57.57;100734.63;5158597;27;811;-45
2021/07/24 12:02:21;;;;;;;;;;;;;;;21.40;56.09;100731.28;5158553;27;770;-46
2021/07/24 12:04:49;;;;;;;;;;;;;;;21.25;56.30;100726.84;5158473;27;1141;-47
2021/07/24 12:07:14;;;;;;;;;;;;;;;21.44;55.87;100727.56;5158132;27;771;-43
2021/07/24 12:09:40;;;;;;;;;;;;;;;21.44;55.79;100722.03;5158395;27;818;-44
2021/07/24 12:12:05;;;;;;;;;;;;;;;21.14;56.74;100729.81;5139401;27;973;-46
2021/07/24 12:14:31;;;;;;;;;;;;;;;20.96;57.45;100727.97;5158326;27;838;-43
2021/07/24 12:17:17;;;;;;;;;;;;;;;20.85;56.11;100730.09;5157675;27;1975;-51
2021/07/24 12:19:45;;;;;;;;;;;;;;;20.67;58.56;100732.59;5157997;27;1510;-53
2021/07/24 12:22:17;;;;;;;;;;;;;;;21.33;56.29;100718.66;5158000;27;822;-55
2021/07/24 12:24:43;;;;;;;;;;;;;;;21.30;56.33;100721.22;5158656;27;759;-42
2021/07/24 12:27:09;;;;;;;;;;;;;;;21.39;56.25;100724.91;5157963;27;957;-56
2021/07/24 12:29:47;;;;;;;;;;;;;;;21.32;56.67;100727.25;5139581;27;1215;-54
2021/07/24 12:32:12;;;;;;;;;;;;;;;21.15;57.30;100720.41;5158285;27;819;-43
2021/07/24 12:34:38;;;;;;;;;;;;;;;20.98;58.01;100722.94;5157732;27;763;-47
2021/07/24 12:37:03;;;;;;;;;;;;;;;20.80;57.19;100719.97;5160177;27;1978;-56
2021/07/24 12:39:32;;;;;;;;;;;;;;;20.75;58.95;100733.84;5162395;27;795;-55
2021/07/24 12:42:05;;;;;;;;;;;;;;;21.02;58.15;100721.22;5162068;27;964;-56
2021/07/24 12:44:31;;;;;;;;;;;;;;;21.33;57.21;100723.38;5162331;27;834;-56
2021/07/24 12:47:15;;;;;;;;;;;;;;;21.61;56.31;100729.75;5143131;27;833;-51
2021/07/24 12:49:44;;;;;;;;;;;;;;;21.48;56.74;100733.31;5162124;27;759;-57
2021/07/24 12:52:22;;;;;;;;;;;;;;;20.96;58.42;100733.50;5142971;27;1267;-58
2021/07/24 12:55:07;;;;;;;;;;;;;;;20.85;58.86;100733.66;5162010;27;751;-57
2021/07/24 12:57:33;;;;;;;;;;;;;;;20.60;58.15;100731.31;5161646;27;1047;-55